Photos

KAIST Power Electronics Lab.

[ECCE ASIA 2017]

 

P20170605_144543394_ADD646A0-7618-48C3-BAF3-E707D773A8C1.JPG

연철오 박사과정 - A New LLC Resonant Converter with Resonant Frequency Change for High Conversion Efficiency and High Power Density

 

P20170605_164718278_F593D86B-4C5B-4392-AFAB-510E5F099638.JPG

백재일 박사과정 - PWM Half-Bridge Zeta Converter Utilizing Resonant Technique for Reduced Peak Current

 

P20170605_173410549_FAB7DAD2-C8D4-44E3-8471-F0EBF14AB6CB.JPG

한정규 박사과정 - A Simple THD Improving Method for CCM Boost PFC Converter in Light Load Condition

 

P20170605_160522313_87C78987-5172-4999-AC3E-0E00B0BA4F2A.JPG

이영달 박사과정 - A Zero Voltage Switching Dual Boost Power Factor Correction Rectifier with Active Clamp Circuit Having Minimized Conduction Losses

P20170608_004805024_422B6A12-8364-4C2E-A6C6-01EAB660BD98.JPG

장유진 박사과정 - 'Novel Multi-Coil Resonator Design for Wireless Power Transfer through Reinforced Concrete Structure with Rebar Array'

P20170607_103849000_D1A41ACE-1387-4427-A5DB-62A2C81C7028.JPG

임천용 박사과정 - Phase Leading Input Capacitor Compensation using a Variable Inductor with High Efficiency in a CRM Boost PFC

 

P20170607_122152000_C59D6372-E1DB-4E1E-913F-EA4304FB673B.JPG

박무현 박사과정 - An Improved Current Compensation Method for High PF and Low THD in Digital Boost Power Factor Corrector

 

P20170607_161237649_62384CC3-84D5-413A-AF7D-6A5A0E82A041.JPG

이정수 석사과정 - Three-Switch LLC Resonant Converter for High Efficiency Adapter With Universal Input Voltage

 

P20170607_131902009_45E9B784-4E4C-4DF1-A971-6047A2BEF0EC.JPG

 


List of Articles
번호 제목 글쓴이 날짜 조회 수
209 [2004]03_13 계족산01 file - 2007.11.30 1042
208 [2004]03_13 계족산02 file - 2007.11.30 939
207 [2004]03_13 계족산03 file - 2007.11.30 948
206 [2004]03_13 계족산04 file - 2007.11.30 971
205 [2004]03_13 계족산05 file - 2007.11.30 943
204 [2004]04_24 금수봉01 file - 2007.11.30 908
203 [2004]04_24 금수봉02 file - 2007.11.30 960
202 [2004]04_24 금수봉03 file - 2007.11.30 920
201 [2004]05_12 마이산01 file - 2007.11.30 968
200 [2004]05_12 마이산02 file - 2007.11.30 959
199 [2004]05_12 마이산03 file - 2007.11.30 946
198 [2004]05_12 마이산04 file - 2007.11.30 950
Board Pagination Prev 1 2 3 4 5 6 7 8 9 10 11 12 ... 20 Next
/ 20